Time;durP1;ratioP1;P1;durP2;ratioP2;P2;SDS_P1;SDS_P2;PMS_P1;PMS_P2;Temp;Humidity;BMP_temperature;BMP_pressure;BME280_temperature;BME280_humidity;BME280_pressure;Samples;Min_cycle;Max_cycle;Signal;HPM_P1;HPM_P2
2022/06/01 00:00:58;;;;;;;14.70;12.52;;;12.10;99.90;;;;;;5071052;28;20037;-48
2022/06/01 00:03:24;;;;;;;14.63;12.48;;;12.10;99.90;;;;;;5070720;28;20028;-50
2022/06/01 00:05:54;;;;;;;16.55;12.57;;;12.00;99.90;;;;;;5071238;28;20067;-48
2022/06/01 00:08:22;;;;;;;16.05;13.05;;;12.00;99.90;;;;;;5071053;28;20566;-48
2022/06/01 00:10:48;;;;;;;16.17;13.38;;;11.90;99.90;;;;;;5070918;28;20044;-46
2022/06/01 00:13:13;;;;;;;14.90;13.13;;;12.00;99.90;;;;;;5069807;28;20425;-49
2022/06/01 00:15:39;;;;;;;16.65;13.75;;;11.90;99.90;;;;;;5070542;28;20076;-45
2022/06/01 00:18:05;;;;;;;16.60;13.50;;;11.90;99.90;;;;;;5052494;28;20040;-47
2022/06/01 00:20:30;;;;;;;17.52;13.55;;;11.80;99.90;;;;;;5070828;28;20423;-47
2022/06/01 00:22:56;;;;;;;16.50;14.25;;;11.80;99.90;;;;;;5069509;28;20498;-47
2022/06/01 00:25:24;;;;;;;16.88;12.93;;;11.80;99.90;;;;;;5070549;28;20036;-49
2022/06/01 00:27:50;;;;;;;15.73;13.20;;;11.80;99.90;;;;;;5070390;28;20106;-48
2022/06/01 00:30:17;;;;;;;15.30;13.68;;;11.70;99.90;;;;;;5070749;28;20398;-44
2022/06/01 00:32:43;;;;;;;14.90;12.48;;;11.80;99.90;;;;;;5070245;28;20487;-47
2022/06/01 00:35:11;;;;;;;16.02;13.20;;;11.80;99.90;;;;;;5070278;28;20111;-46
2022/06/01 00:37:37;;;;;;;16.42;12.50;;;11.80;99.90;;;;;;5070275;28;20546;-47
2022/06/01 00:40:05;;;;;;;13.25;11.48;;;11.70;99.90;;;;;;5070106;28;20040;-49
2022/06/01 00:42:33;;;;;;;16.60;12.38;;;11.60;99.90;;;;;;5068412;28;20087;-47
2022/06/01 00:44:59;;;;;;;13.38;11.73;;;11.70;99.90;;;;;;5070816;28;20048;-48
2022/06/01 00:47:27;;;;;;;13.02;11.50;;;11.60;99.90;;;;;;5070044;28;20036;-48
2022/06/01 00:50:03;;;;;;;14.18;11.77;;;11.60;99.90;;;;;;5070513;28;20475;-48
2022/06/01 00:52:35;;;;;;;13.48;11.65;;;11.60;99.90;;;;;;5070439;28;20804;-48
2022/06/01 00:55:24;;;;;;;13.68;11.63;;;11.70;99.90;;;;;;5070431;28;20066;-50
2022/06/01 00:57:56;;;;;;;13.27;11.80;;;11.70;99.90;;;;;;5068686;28;20041;-48
2022/06/01 01:00:25;;;;;;;13.63;11.90;;;11.70;99.90;;;;;;5070149;28;20476;-51
2022/06/01 01:02:55;;;;;;;15.05;12.63;;;11.70;99.90;;;;;;5070269;28;20418;-51
2022/06/01 01:05:22;;;;;;;14.75;12.52;;;11.70;99.90;;;;;;5070279;28;20036;-49
2022/06/01 01:07:51;;;;;;;13.60;12.02;;;11.70;99.90;;;;;;5070060;28;20513;-47
2022/06/01 01:10:18;;;;;;;14.13;12.30;;;11.70;99.90;;;;;;5070346;28;20102;-48
2022/06/01 01:12:56;;;;;;;14.65;12.05;;;11.70;99.90;;;;;;5069442;28;20086;-47
2022/06/01 01:15:24;;;;;;;15.65;12.73;;;11.70;99.90;;;;;;5069796;28;20506;-49
2022/06/01 01:17:50;;;;;;;14.18;12.13;;;11.70;99.90;;;;;;5069806;28;20048;-47
2022/06/01 01:20:17;;;;;;;15.07;12.70;;;11.70;99.90;;;;;;5069656;28;20117;-49
2022/06/01 01:23:00;;;;;;;16.98;12.05;;;11.60;99.90;;;;;;5069847;28;20040;-48
2022/06/01 01:25:28;;;;;;;13.82;12.25;;;11.60;99.90;;;;;;5070151;28;20531;-47
2022/06/01 01:27:57;;;;;;;15.45;13.32;;;11.50;99.90;;;;;;5069085;28;20049;-48
2022/06/01 01:30:38;;;;;;;17.20;13.65;;;11.50;99.90;;;;;;5069682;28;20033;-49
2022/06/01 01:33:12;;;;;;;15.50;12.00;;;11.50;99.90;;;;;;5069937;28;20383;-50
2022/06/01 01:35:38;;;;;;;14.52;12.98;;;11.40;99.90;;;;;;5069755;28;20399;-46
2022/06/01 01:38:14;;;;;;;15.50;12.55;;;11.50;99.90;;;;;;5069917;28;20052;-47
2022/06/01 01:40:40;;;;;;;14.95;13.05;;;11.50;99.90;;;;;;5069751;28;20480;-47
2022/06/01 01:43:07;;;;;;;14.70;12.98;;;11.60;99.90;;;;;;5069243;28;20037;-49
2022/06/01 01:45:36;;;;;;;15.98;13.73;;;11.60;99.90;;;;;;5069858;28;20041;-50
2022/06/01 01:48:02;;;;;;;14.30;12.80;;;11.60;99.90;;;;;;5069443;28;20121;-49
2022/06/01 01:50:28;;;;;;;15.20;12.68;;;11.60;99.90;;;;;;5055061;28;20090;-50
2022/06/01 01:52:54;;;;;;;14.48;12.98;;;11.60;99.90;;;;;;5073579;28;20033;-48
2022/06/01 01:55:30;;;;;;;15.50;13.50;;;11.50;99.90;;;;;;5073254;28;20032;-48
2022/06/01 01:58:21;;;;;;;15.38;13.77;;;11.60;99.90;;;;;;5072040;28;20052;-50
2022/06/01 02:00:52;;;;;;;16.10;13.38;;;11.50;99.90;;;;;;5073088;28;20040;-48
2022/06/01 02:03:39;;;;;;;14.68;13.07;;;11.60;99.90;;;;;;5073228;28;20471;-52
2022/06/01 02:06:23;;;;;;;15.35;13.65;;;11.50;99.90;;;;;;5072812;28;20115;-51
2022/06/01 02:08:59;;;;;;;19.27;14.38;;;11.50;99.90;;;;;;5073015;28;20036;-50
2022/06/01 02:14:28;;;;;;;18.65;15.10;;;11.50;99.90;;;;;;5071836;28;20059;-47
2022/06/01 02:16:59;;;;;;;;;;;11.40;99.90;;;;;;5073069;28;20041;-47
2022/06/01 02:19:31;;;;;;;17.40;15.48;;;11.40;99.90;;;;;;5072704;28;19924;-47
2022/06/01 02:21:57;;;;;;;19.67;17.00;;;11.30;99.90;;;;;;5073154;28;20179;-48
2022/06/01 02:24:24;;;;;;;20.33;15.93;;;11.40;99.90;;;;;;5072975;28;20123;-46
2022/06/01 02:26:52;;;;;;;18.60;15.48;;;11.40;99.90;;;;;;5072987;28;20039;-47
2022/06/01 02:29:22;;;;;;;19.63;17.30;;;11.30;99.90;;;;;;5071593;28;20499;-49
2022/06/01 02:31:50;;;;;;;19.42;17.33;;;11.30;99.90;;;;;;5072901;28;20052;-46
2022/06/01 02:34:17;;;;;;;20.17;17.88;;;11.30;99.90;;;;;;5054910;28;20040;-49
2022/06/01 02:36:44;;;;;;;19.88;17.77;;;11.30;99.90;;;;;;5072403;28;20041;-48
2022/06/01 02:39:13;;;;;;;21.27;18.65;;;11.30;99.90;;;;;;5072706;28;20035;-48
2022/06/01 02:44:23;;;;;;;20.88;17.63;;;11.10;99.90;;;;;;5072645;28;20109;-46
2022/06/01 02:46:49;;;;;;;22.42;19.00;;;11.10;99.90;;;;;;5054318;28;20434;-47
2022/06/01 02:49:17;;;;;;;22.83;17.58;;;10.80;99.90;;;;;;5072231;28;20471;-50
2022/06/01 02:51:44;;;;;;;21.80;19.38;;;11.00;99.90;;;;;;5072218;28;20032;-49
2022/06/01 02:54:10;;;;;;;24.65;18.85;;;11.00;99.90;;;;;;5071799;28;20048;-49
2022/06/01 02:56:36;;;;;;;21.05;18.33;;;11.10;99.90;;;;;;5072030;28;20510;-47
2022/06/01 02:59:01;;;;;;;19.88;17.25;;;10.90;99.90;;;;;;5072313;28;20047;-48
2022/06/01 03:01:27;;;;;;;20.75;18.35;;;10.90;99.90;;;;;;5072102;28;20369;-46
2022/06/01 03:03:53;;;;;;;19.17;17.08;;;11.00;99.90;;;;;;5072057;28;20032;-49
2022/06/01 03:06:19;;;;;;;22.77;18.58;;;11.00;99.90;;;;;;5072194;28;20400;-45
2022/06/01 03:08:45;;;;;;;20.95;18.05;;;11.00;99.90;;;;;;5053649;28;20040;-47
2022/06/01 03:11:12;;;;;;;21.90;18.23;;;11.00;99.90;;;;;;5054087;28;20044;-51
2022/06/01 03:13:38;;;;;;;22.10;19.35;;;11.00;99.90;;;;;;5070978;28;20060;-47
2022/06/01 03:16:04;;;;;;;23.40;20.25;;;10.90;99.90;;;;;;5072056;28;20407;-48
2022/06/01 03:18:31;;;;;;;24.13;20.83;;;10.90;99.90;;;;;;5071828;28;20032;-49
2022/06/01 03:20:58;;;;;;;27.25;22.17;;;11.00;99.90;;;;;;5071646;28;20388;-51
2022/06/01 03:23:24;;;;;;;28.10;23.35;;;11.10;99.90;;;;;;5071177;28;20472;-46
2022/06/01 03:25:50;;;;;;;28.63;24.10;;;11.10;99.90;;;;;;5071891;28;20032;-48
2022/06/01 03:28:16;;;;;;;30.15;25.88;;;10.90;99.90;;;;;;5071249;28;20032;-47
2022/06/01 03:30:43;;;;;;;32.13;28.10;;;10.90;99.90;;;;;;5071738;28;20456;-51
2022/06/01 03:33:10;;;;;;;33.05;27.63;;;11.10;99.90;;;;;;5071516;28;20122;-52
2022/06/01 03:35:37;;;;;;;30.45;26.85;;;11.10;99.90;;;;;;5053499;28;20044;-49
2022/06/01 03:38:02;;;;;;;32.58;27.85;;;11.10;99.90;;;;;;5053123;28;20049;-48
2022/06/01 03:40:31;;;;;;;30.63;26.27;;;11.00;99.90;;;;;;5053614;28;20044;-48
2022/06/01 03:42:57;;;;;;;32.75;27.33;;;11.10;99.90;;;;;;5069613;28;20036;-49
2022/06/01 03:48:09;;;;;;;33.83;27.40;;;11.10;99.90;;;;;;5071423;28;20394;-48
2022/06/01 03:50:35;;;;;;;32.42;27.33;;;11.00;99.90;;;;;;5071272;28;20123;-51
2022/06/01 03:53:02;;;;;;;35.05;29.20;;;11.00;99.90;;;;;;5071135;28;20071;-47
2022/06/01 03:55:29;;;;;;;33.33;28.25;;;11.10;99.90;;;;;;5071003;28;20048;-49
2022/06/01 03:57:55;;;;;;;34.47;28.27;;;11.10;99.90;;;;;;5070866;28;20131;-49
2022/06/01 04:00:23;;;;;;;36.05;29.02;;;11.20;99.90;;;;;;5069489;28;20464;-49
2022/06/01 04:02:49;;;;;;;36.63;29.23;;;11.10;99.90;;;;;;5070859;28;20036;-49
2022/06/01 04:05:16;;;;;;;36.22;29.90;;;11.00;99.90;;;;;;5071182;28;20044;-48
2022/06/01 04:07:42;;;;;;;37.42;28.65;;;11.10;99.90;;;;;;5069576;28;20037;-47
2022/06/01 04:10:08;;;;;;;36.42;28.95;;;11.10;99.90;;;;;;5070955;28;20044;-48
2022/06/01 04:12:34;;;;;;;32.15;27.77;;;11.10;99.90;;;;;;5069377;28;20073;-44
2022/06/01 04:15:00;;;;;;;34.78;28.40;;;11.00;99.90;;;;;;5070924;28;20048;-47
2022/06/01 04:17:26;;;;;;;32.80;28.35;;;11.00;99.90;;;;;;5070982;28;20051;-48
2022/06/01 04:19:51;;;;;;;35.15;27.77;;;11.10;99.90;;;;;;5070584;28;20107;-48
2022/06/01 04:22:19;;;;;;;33.65;28.48;;;11.20;99.90;;;;;;5070328;28;20483;-47
2022/06/01 04:24:45;;;;;;;34.15;28.17;;;11.10;99.90;;;;;;5070324;28;20071;-46
2022/06/01 04:27:11;;;;;;;31.25;26.75;;;11.10;99.90;;;;;;5052507;28;20068;-45
2022/06/01 04:29:37;;;;;;;33.17;26.17;;;11.30;99.90;;;;;;5052300;28;20286;-51
2022/06/01 04:32:31;;;;;;;33.22;26.77;;;11.20;99.90;;;;;;5070383;28;20068;-47
2022/06/01 04:34:57;;;;;;;31.15;24.60;;;11.10;99.90;;;;;;5069665;28;20041;-47
2022/06/01 04:37:23;;;;;;;29.05;24.23;;;11.20;99.90;;;;;;5052680;28;20048;-47
2022/06/01 04:39:48;;;;;;;31.00;24.23;;;11.20;99.90;;;;;;5070126;28;20114;-48
2022/06/01 04:42:14;;;;;;;32.40;26.40;;;11.10;99.90;;;;;;5069716;28;20037;-46
2022/06/01 04:44:40;;;;;;;34.55;27.95;;;11.20;99.90;;;;;;5070272;28;20041;-49
2022/06/01 04:47:06;;;;;;;35.22;28.50;;;11.20;99.90;;;;;;5070420;28;20048;-46
2022/06/01 04:49:32;;;;;;;37.67;30.50;;;11.20;99.90;;;;;;5070328;28;20036;-49
2022/06/01 04:51:57;;;;;;;35.78;28.35;;;11.20;99.90;;;;;;5070340;28;20063;-45
2022/06/01 04:54:23;;;;;;;38.97;29.63;;;11.20;99.90;;;;;;5070086;28;20036;-47
2022/06/01 04:56:49;;;;;;;40.92;31.02;;;11.20;99.90;;;;;;5070064;28;20036;-46
2022/06/01 04:59:17;;;;;;;41.40;32.85;;;11.30;99.90;;;;;;5070072;28;20037;-47
2022/06/01 05:01:43;;;;;;;43.47;32.78;;;11.30;99.90;;;;;;5068595;28;20040;-48
2022/06/01 05:04:09;;;;;;;46.42;34.47;;;11.30;99.90;;;;;;5069793;28;20032;-46
2022/06/01 05:06:35;;;;;;;45.08;34.45;;;11.30;99.90;;;;;;5070284;28;20037;-48
2022/06/01 05:09:00;;;;;;;44.72;35.20;;;11.30;99.90;;;;;;5070195;28;20487;-48
2022/06/01 05:11:26;;;;;;;45.05;34.90;;;11.20;99.90;;;;;;5069764;28;20074;-46
2022/06/01 05:13:52;;;;;;;45.40;35.30;;;11.30;99.90;;;;;;5069348;28;20140;-48
2022/06/01 05:16:18;;;;;;;44.40;34.42;;;11.40;99.90;;;;;;5069998;28;20040;-47
2022/06/01 05:18:44;;;;;;;40.75;32.97;;;11.40;99.90;;;;;;5051618;28;20044;-49
2022/06/01 05:21:09;;;;;;;42.80;32.75;;;11.40;99.90;;;;;;5070020;28;20039;-48
2022/06/01 05:23:35;;;;;;;35.00;29.10;;;11.30;99.90;;;;;;5070428;28;20142;-49
2022/06/01 05:26:01;;;;;;;37.92;29.30;;;11.30;99.90;;;;;;5074135;28;20036;-48
2022/06/01 05:28:30;;;;;;;34.92;27.92;;;11.30;99.90;;;;;;5074037;28;20035;-45
2022/06/01 05:31:05;;;;;;;36.53;27.40;;;11.40;99.90;;;;;;5073733;28;20044;-48
2022/06/01 05:33:32;;;;;;;34.47;27.40;;;11.40;99.90;;;;;;5055648;28;20036;-47
2022/06/01 05:35:58;;;;;;;35.22;27.77;;;11.50;99.90;;;;;;5073087;28;20079;-48
2022/06/01 05:38:24;;;;;;;33.45;25.90;;;11.60;99.90;;;;;;5073593;28;20029;-47
2022/06/01 05:40:50;;;;;;;32.03;26.02;;;11.50;99.90;;;;;;5073489;28;20039;-48
2022/06/01 05:43:17;;;;;;;34.92;27.15;;;11.70;99.90;;;;;;5073323;28;20639;-45
2022/06/01 05:45:43;;;;;;;32.20;25.25;;;11.80;99.90;;;;;;5072364;28;20480;-46
2022/06/01 05:48:11;;;;;;;29.25;22.77;;;11.80;99.90;;;;;;5073470;28;20165;-47
2022/06/01 05:50:37;;;;;;;33.35;24.33;;;11.80;99.90;;;;;;5073477;28;20350;-45
2022/06/01 05:53:03;;;;;;;28.38;22.13;;;11.90;99.90;;;;;;5073528;28;20040;-49
2022/06/01 05:55:29;;;;;;;28.52;23.75;;;11.90;99.90;;;;;;5073360;28;20040;-47
2022/06/01 05:57:55;;;;;;;22.42;18.27;;;12.10;99.90;;;;;;5073036;28;20628;-45
2022/06/01 06:00:21;;;;;;;22.80;18.33;;;12.20;99.90;;;;;;5073019;28;20040;-47
2022/06/01 06:02:47;;;;;;;22.95;17.88;;;12.40;99.90;;;;;;5073087;28;20040;-47
2022/06/01 06:07:58;;;;;;;21.13;16.83;;;12.40;99.90;;;;;;5073278;28;20044;-47
2022/06/01 06:10:24;;;;;;;20.88;16.58;;;12.50;99.90;;;;;;5073267;28;20055;-47
2022/06/01 06:12:50;;;;;;;20.52;15.45;;;12.40;99.90;;;;;;5072426;28;20056;-48
2022/06/01 06:15:16;;;;;;;21.45;15.63;;;12.40;99.90;;;;;;5073170;28;20470;-48
2022/06/01 06:17:42;;;;;;;17.85;15.10;;;12.30;99.90;;;;;;5072628;28;20032;-47
2022/06/01 06:20:09;;;;;;;20.30;15.43;;;12.30;99.90;;;;;;5072754;28;20494;-48
2022/06/01 06:22:35;;;;;;;17.10;14.70;;;12.40;99.90;;;;;;5073411;28;20364;-45
2022/06/01 06:25:00;;;;;;;19.58;15.75;;;12.40;99.90;;;;;;5072888;28;20041;-48
2022/06/01 06:27:27;;;;;;;20.02;15.63;;;12.50;99.90;;;;;;5072981;28;20543;-47
2022/06/01 06:29:53;;;;;;;18.88;15.05;;;12.50;99.90;;;;;;5071157;28;20040;-48
2022/06/01 06:32:20;;;;;;;18.25;15.13;;;12.40;99.90;;;;;;5072304;28;20078;-48
2022/06/01 06:34:45;;;;;;;19.52;15.70;;;12.50;99.90;;;;;;5072232;28;20112;-48
2022/06/01 06:37:11;;;;;;;20.52;16.30;;;12.60;99.90;;;;;;5072513;28;20128;-49
2022/06/01 06:39:37;;;;;;;19.55;14.77;;;12.70;99.90;;;;;;5072327;28;20045;-48
2022/06/01 06:42:03;;;;;;;18.48;14.43;;;12.80;99.90;;;;;;5072328;28;20428;-47
2022/06/01 06:44:29;;;;;;;18.10;13.90;;;12.80;99.90;;;;;;5072002;28;20068;-48
2022/06/01 06:46:55;;;;;;;16.90;13.38;;;12.80;99.90;;;;;;5054298;28;20076;-47
2022/06/01 06:49:21;;;;;;;18.10;14.60;;;12.80;99.90;;;;;;5070862;28;20040;-47
2022/06/01 06:51:48;;;;;;;17.50;12.82;;;12.80;99.90;;;;;;5072510;28;20064;-49
2022/06/01 06:54:14;;;;;;;14.63;11.80;;;12.80;99.90;;;;;;5072067;28;20040;-46
2022/06/01 06:56:40;;;;;;;16.35;12.30;;;12.80;99.90;;;;;;5072078;28;20041;-48
2022/06/01 06:59:05;;;;;;;15.55;12.15;;;12.90;99.90;;;;;;5072304;28;20078;-47
2022/06/01 07:01:31;;;;;;;15.93;12.55;;;12.80;99.90;;;;;;5071950;28;20434;-46
2022/06/01 07:03:57;;;;;;;15.48;12.45;;;12.80;99.90;;;;;;5071971;28;20036;-48
2022/06/01 07:06:23;;;;;;;16.17;12.55;;;12.80;99.90;;;;;;5071957;28;20105;-49
2022/06/01 07:08:52;;;;;;;15.88;13.13;;;12.80;99.90;;;;;;5053972;28;20115;-47
2022/06/01 07:11:21;;;;;;;15.05;11.60;;;12.90;99.90;;;;;;5071748;28;20039;-46
2022/06/01 07:13:48;;;;;;;14.38;11.15;;;12.90;99.90;;;;;;5071365;28;20048;-49
2022/06/01 07:16:16;;;;;;;15.40;11.35;;;12.90;99.90;;;;;;5071483;28;20060;-48
2022/06/01 07:18:44;;;;;;;17.73;12.05;;;13.10;99.90;;;;;;5071885;28;20036;-51
2022/06/01 07:21:11;;;;;;;13.40;11.10;;;13.30;99.90;;;;;;5071639;28;20388;-49
2022/06/01 07:23:38;;;;;;;15.90;11.48;;;13.50;99.90;;;;;;5071801;28;20380;-48
2022/06/01 07:26:07;;;;;;;15.60;11.88;;;13.50;99.90;;;;;;5070645;28;20044;-48
2022/06/01 07:28:33;;;;;;;14.88;11.10;;;13.30;99.90;;;;;;5071601;28;20496;-48
2022/06/01 07:30:58;;;;;;;17.58;12.63;;;13.30;99.90;;;;;;5071756;28;20029;-48
2022/06/01 07:33:26;;;;;;;14.43;12.27;;;13.10;99.90;;;;;;5071642;28;20147;-47
2022/06/01 07:35:52;;;;;;;17.42;12.25;;;12.90;99.90;;;;;;5071661;28;20032;-46
2022/06/01 07:43:48;;;;;;;10.55;5.80;;;12.70;99.90;;;;;;5071046;28;20105;-47
2022/06/01 07:46:14;;;;;;;8.95;6.38;;;12.40;99.90;;;;;;5070375;28;20037;-46
2022/06/01 07:48:39;;;;;;;9.60;6.50;;;12.50;99.90;;;;;;5071255;28;20032;-46
2022/06/01 07:51:05;;;;;;;15.02;9.95;;;12.30;99.90;;;;;;5052989;28;20040;-45
2022/06/01 07:53:31;;;;;;;15.65;11.35;;;12.50;99.90;;;;;;5070005;28;20463;-46
2022/06/01 07:55:57;;;;;;;17.25;13.38;;;12.30;99.90;;;;;;5071083;28;20046;-45
2022/06/01 07:58:23;;;;;;;18.80;13.88;;;12.40;99.90;;;;;;5071155;28;20033;-46
2022/06/01 08:00:49;;;;;;;17.00;13.73;;;12.50;99.90;;;;;;5069664;28;20411;-43
2022/06/01 08:03:17;;;;;;;15.45;12.95;;;12.60;99.90;;;;;;5071063;28;20215;-46
2022/06/01 08:05:43;;;;;;;16.90;13.55;;;12.80;99.90;;;;;;5071037;28;20128;-47
2022/06/01 08:08:09;;;;;;;14.85;12.27;;;12.50;99.90;;;;;;5070454;28;20128;-45
2022/06/01 08:10:36;;;;;;;14.48;12.38;;;12.70;99.90;;;;;;5052539;28;20070;-46
2022/06/01 08:13:06;;;;;;;17.65;13.23;;;13.00;99.90;;;;;;5070162;28;20036;-46
2022/06/01 08:15:40;;;;;;;17.88;13.80;;;13.00;99.90;;;;;;5070452;28;20052;-46
2022/06/01 08:18:06;;;;;;;15.80;12.40;;;13.10;99.90;;;;;;5070826;28;20051;-45
2022/06/01 08:20:33;;;;;;;17.60;12.60;;;13.20;99.90;;;;;;5070728;28;20049;-46
2022/06/01 08:23:00;;;;;;;13.75;11.73;;;13.30;99.90;;;;;;5070998;28;20484;-45
2022/06/01 08:25:27;;;;;;;12.07;9.63;;;13.30;99.90;;;;;;5069718;28;20174;-47
2022/06/01 08:27:53;;;;;;;10.57;8.23;;;13.40;99.90;;;;;;5070244;28;20087;-46
2022/06/01 08:30:21;;;;;;;6.60;3.50;;;13.50;99.90;;;;;;5070508;28;20076;-45
2022/06/01 08:32:48;;;;;;;4.70;3.22;;;13.90;99.90;;;;;;5070646;28;20040;-45
2022/06/01 08:35:16;;;;;;;5.50;3.03;;;13.90;99.90;;;;;;5070008;28;20033;-46
2022/06/01 08:37:42;;;;;;;5.53;2.78;;;14.20;99.90;;;;;;5070572;28;20041;-45
2022/06/01 08:40:09;;;;;;;4.45;2.67;;;14.40;99.90;;;;;;5070075;28;20498;-45
2022/06/01 08:42:36;;;;;;;4.50;2.88;;;14.50;99.90;;;;;;5069720;28;20032;-49
2022/06/01 08:45:07;;;;;;;4.72;3.40;;;14.60;99.90;;;;;;5070224;28;20165;-46
2022/06/01 08:47:37;;;;;;;4.57;2.95;;;14.40;99.90;;;;;;5070029;28;20043;-48
2022/06/01 08:50:14;;;;;;;5.00;3.30;;;14.30;99.90;;;;;;5069368;28;20052;-47
2022/06/01 08:52:39;;;;;;;6.25;3.42;;;14.20;99.90;;;;;;5070285;28;20041;-45
2022/06/01 08:55:05;;;;;;;4.28;2.90;;;14.40;99.90;;;;;;5069928;28;20040;-47
2022/06/01 08:57:47;;;;;;;3.58;2.50;;;14.50;99.90;;;;;;5069283;28;20123;-46
2022/06/01 09:00:17;;;;;;;6.07;2.15;;;14.50;99.90;;;;;;5070396;28;20044;-46
2022/06/01 09:03:10;;;;;;;3.00;1.83;;;14.80;99.90;;;;;;5070009;28;20071;-45
2022/06/01 09:05:36;;;;;;;4.38;2.20;;;14.80;99.90;;;;;;5070290;28;20043;-45
2022/06/01 09:08:18;;;;;;;3.42;2.08;;;14.80;99.90;;;;;;5070120;28;20036;-48
2022/06/01 09:11:02;;;;;;;4.45;2.10;;;14.60;99.90;;;;;;5068827;28;20416;-47
2022/06/01 09:13:40;;;;;;;4.40;2.55;;;14.80;99.90;;;;;;5051492;28;20064;-46
2022/06/01 09:16:13;;;;;;;4.40;2.25;;;15.20;99.90;;;;;;5069841;28;20048;-45
2022/06/01 09:18:47;;;;;;;4.15;2.65;;;15.60;99.90;;;;;;5069976;28;20037;-45
2022/06/01 09:24:31;;;;;;;4.88;2.10;;;15.90;99.90;;;;;;5069669;28;20055;-48
2022/06/01 09:26:59;;;;;;;3.17;2.00;;;15.10;99.90;;;;;;5051704;28;20052;-47
2022/06/01 09:29:32;;;;;;;4.13;1.80;;;15.60;99.90;;;;;;5069816;28;20044;-46
2022/06/01 09:32:07;;;;;;;3.47;2.05;;;15.90;99.90;;;;;;5069654;28;20119;-47
2022/06/01 09:34:35;;;;;;;3.55;2.05;;;15.70;99.90;;;;;;5067979;28;20045;-46
2022/06/01 09:37:08;;;;;;;4.25;1.60;;;15.60;99.90;;;;;;5069657;28;20111;-47
2022/06/01 09:39:38;;;;;;;3.33;1.50;;;15.40;99.90;;;;;;5069957;28;20033;-45
2022/06/01 09:42:36;;;;;;;3.00;1.80;;;15.50;99.90;;;;;;5069461;28;20062;-48
2022/06/01 09:45:12;;;;;;;3.33;1.73;;;16.00;99.90;;;;;;5069894;28;20036;-47
2022/06/01 09:47:40;;;;;;;4.32;1.85;;;16.10;99.90;;;;;;5069914;28;20072;-44
2022/06/01 09:50:30;;;;;;;3.55;1.42;;;16.20;99.90;;;;;;5069192;28;20032;-48
2022/06/01 09:53:12;;;;;;;3.05;1.70;;;16.70;99.90;;;;;;5054937;28;20052;-46
2022/06/01 09:55:55;;;;;;;4.25;1.67;;;16.80;99.90;;;;;;5069810;28;21350;-47
2022/06/01 10:07:07;;;;;;;3.15;1.60;;;17.30;99.90;;;;;;5068368;28;20480;-48
2022/06/01 10:09:34;;;;;;;3.17;1.15;;;17.30;99.90;;;;;;5070098;28;20043;-46
2022/06/01 10:12:23;;;;;;;2.85;1.40;;;16.80;99.90;;;;;;5055053;28;20036;-46
2022/06/01 10:14:54;;;;;;;3.33;1.50;;;16.60;99.90;;;;;;5072823;28;20055;-45
2022/06/01 10:17:51;;;;;;;3.00;1.70;;;16.20;99.90;;;;;;5073091;28;20497;-51
2022/06/01 10:20:38;;;;;;;3.40;0.90;;;15.80;99.90;;;;;;5072784;28;20036;-50
2022/06/01 10:23:11;;;;;;;1.73;0.70;;;15.10;99.90;;;;;;5072819;28;20036;-48
2022/06/01 10:25:43;;;;;;;6.05;1.38;;;14.80;99.90;;;;;;5072947;28;20445;-49
2022/06/01 10:28:24;;;;;;;6.95;1.73;;;14.50;99.90;;;;;;5073032;28;20068;-46
2022/06/01 10:30:56;;;;;;;3.13;1.20;;;13.90;99.90;;;;;;5072740;28;20044;-44
2022/06/01 10:33:28;;;;;;;4.53;1.17;;;13.50;99.90;;;;;;5054776;28;20037;-46
2022/06/01 10:36:16;;;;;;;3.13;1.58;;;13.70;99.90;;;;;;5072370;28;20093;-45
2022/06/01 10:39:03;;;;;;;2.72;1.50;;;13.90;99.90;;;;;;5072766;28;20386;-47
2022/06/01 10:41:58;;;;;;;2.88;1.20;;;14.00;99.90;;;;;;5071798;28;20154;-45
2022/06/01 10:44:44;;;;;;;1.83;0.93;;;14.30;99.90;;;;;;5072388;28;20033;-46
2022/06/01 10:47:18;;;;;;;1.42;1.00;;;14.40;99.90;;;;;;5072675;28;20086;-47
2022/06/01 10:50:00;;;;;;;2.15;1.17;;;14.60;99.90;;;;;;5072516;28;20032;-47
2022/06/01 10:52:48;;;;;;;1.90;1.20;;;14.80;99.90;;;;;;5072304;28;20123;-47
2022/06/01 10:55:18;;;;;;;2.60;1.35;;;14.80;99.90;;;;;;5072420;28;20129;-47
2022/06/01 10:57:47;;;;;;;2.10;0.90;;;14.90;99.90;;;;;;5070879;28;20032;-47
2022/06/01 11:00:17;;;;;;;3.10;0.90;;;14.70;99.90;;;;;;5072184;28;20044;-46
2022/06/01 11:03:20;;;;;;;2.40;0.98;;;14.40;99.90;;;;;;5072742;28;20123;-50
2022/06/01 11:06:11;;;;;;;1.55;0.70;;;14.30;99.90;;;;;;5072515;28;20036;-46
2022/06/01 11:08:42;;;;;;;1.40;0.50;;;14.40;99.90;;;;;;5072147;28;20090;-48
2022/06/01 11:11:24;;;;;;;5.25;1.02;;;14.40;99.90;;;;;;5072052;28;20480;-46
2022/06/01 11:14:20;;;;;;;1.48;0.70;;;14.40;99.90;;;;;;5071290;28;20470;-47
2022/06/01 11:16:55;;;;;;;3.30;0.70;;;14.40;99.90;;;;;;5070416;28;20044;-47
2022/06/01 11:19:26;;;;;;;1.67;0.70;;;14.70;99.90;;;;;;5071882;28;20037;-46
2022/06/01 11:22:25;;;;;;;3.50;1.00;;;14.30;99.90;;;;;;5071256;28;20116;-45
2022/06/01 11:24:51;;;;;;;3.08;1.23;;;14.00;99.90;;;;;;5071756;28;20043;-45
2022/06/01 11:27:38;;;;;;;3.05;1.10;;;13.80;99.90;;;;;;5071720;28;20056;-46
2022/06/01 11:30:22;;;;;;;3.00;1.00;;;13.60;99.90;;;;;;5070638;28;20043;-46
2022/06/01 11:33:06;;;;;;;2.15;0.80;;;14.10;99.90;;;;;;5071678;28;20511;-48
2022/06/01 11:35:43;;;;;;;2.08;0.80;;;14.70;99.90;;;;;;5071607;28;20491;-46
2022/06/01 11:38:23;;;;;;;2.55;0.60;;;14.60;99.90;;;;;;5071290;28;20387;-46
2022/06/01 11:41:16;;;;;;;2.25;0.70;;;14.60;99.90;;;;;;5071514;28;20131;-46
2022/06/01 11:43:48;;;;;;;2.17;0.63;;;14.70;99.90;;;;;;5070908;28;20428;-47
2022/06/01 11:46:20;;;;;;;1.23;0.65;;;15.00;99.90;;;;;;5071426;28;20032;-46
2022/06/01 11:48:52;;;;;;;3.97;0.88;;;15.00;99.90;;;;;;5071495;28;20033;-47
2022/06/01 11:51:43;;;;;;;2.00;1.00;;;15.40;99.90;;;;;;5069845;28;20459;-48
2022/06/01 11:54:14;;;;;;;3.42;0.88;;;15.70;99.90;;;;;;5071364;28;20044;-49
2022/06/01 11:56:57;;;;;;;2.83;1.20;;;16.00;99.90;;;;;;5070938;28;20044;-50
2022/06/01 11:59:29;;;;;;;2.40;1.08;;;16.30;99.90;;;;;;5071313;28;20067;-47
2022/06/01 12:01:58;;;;;;;4.20;1.80;;;16.50;99.90;;;;;;5071006;28;20033;-48
2022/06/01 12:04:36;;;;;;;2.30;1.40;;;16.80;99.90;;;;;;5071102;28;20545;-47
2022/06/01 12:07:13;;;;;;;3.08;1.40;;;16.80;99.90;;;;;;5071219;28;20410;-49
2022/06/01 12:09:57;;;;;;;2.80;1.42;;;17.20;99.90;;;;;;5071209;28;20036;-47
2022/06/01 12:12:34;;;;;;;4.40;2.05;;;17.40;99.90;;;;;;5052593;28;20044;-50
2022/06/01 12:15:08;;;;;;;3.08;1.80;;;17.70;99.90;;;;;;5070731;28;20048;-47
2022/06/01 12:17:36;;;;;;;3.55;2.10;;;18.00;99.90;;;;;;5070841;28;20391;-47
2022/06/01 12:20:39;;;;;;;4.40;1.95;;;17.70;99.90;;;;;;5070888;28;20032;-49
2022/06/01 12:28:55;;;;;;;4.93;2.53;;;18.50;99.90;;;;;;5070856;28;20545;-50
2022/06/01 12:31:30;;;;;;;3.95;2.40;;;17.90;99.90;;;;;;5070552;28;20426;-48
2022/06/01 12:34:50;;;;;;;4.45;2.00;;;17.50;99.90;;;;;;5070221;28;20032;-51
2022/06/01 12:37:58;;;;;;;4.35;2.00;;;17.70;99.90;;;;;;4969120;28;20120;-48
2022/06/01 12:40:25;;;;;;;3.42;1.92;;;18.40;99.90;;;;;;5070736;28;20122;-50
2022/06/01 12:42:53;;;;;;;3.35;1.48;;;18.30;99.90;;;;;;5070193;28;20040;-51
2022/06/01 12:45:22;;;;;;;4.82;1.45;;;18.30;99.90;;;;;;5070134;28;20033;-50
2022/06/01 12:47:58;;;;;;;3.13;1.33;;;18.40;99.90;;;;;;5070469;28;20565;-50
2022/06/01 12:50:27;;;;;;;2.85;1.30;;;18.50;99.90;;;;;;5052581;28;20036;-50
2022/06/01 12:53:20;;;;;;;2.95;1.38;;;18.10;99.90;;;;;;5070169;28;20047;-48
2022/06/01 12:55:47;;;;;;;3.90;1.52;;;18.40;99.90;;;;;;5070372;28;20533;-46
2022/06/01 12:58:20;;;;;;;4.53;1.55;;;18.40;99.90;;;;;;5070006;28;20035;-50
2022/06/01 13:00:53;;;;;;;3.42;1.10;;;18.10;99.90;;;;;;5052167;28;20138;-50
2022/06/01 13:03:21;;;;;;;2.83;1.20;;;17.60;99.90;;;;;;5070373;28;20487;-50
2022/06/01 13:05:52;;;;;;;3.47;1.70;;;17.20;99.90;;;;;;5070363;28;20041;-46
2022/06/01 13:08:25;;;;;;;2.75;1.40;;;17.00;99.90;;;;;;5070310;28;20093;-50
2022/06/01 13:10:51;;;;;;;4.15;1.63;;;16.70;99.90;;;;;;5070141;28;20032;-49
2022/06/01 13:13:20;;;;;;;3.15;1.67;;;16.70;99.90;;;;;;5069440;28;20406;-47
2022/06/01 13:16:01;;;;;;;3.65;1.60;;;16.70;99.90;;;;;;5070293;28;20097;-47
2022/06/01 13:18:35;;;;;;;2.60;1.20;;;16.90;99.90;;;;;;5051805;28;20093;-47
2022/06/01 13:21:07;;;;;;;3.08;0.80;;;17.60;99.90;;;;;;5070074;28;20032;-47
2022/06/01 13:24:12;;;;;;;3.50;0.90;;;17.60;99.90;;;;;;5070081;28;20041;-47
2022/06/01 13:26:52;;;;;;;2.60;1.00;;;18.10;99.90;;;;;;4968913;28;20481;-47
2022/06/01 13:29:35;;;;;;;2.15;0.88;;;18.00;99.90;;;;;;4952877;28;20059;-48